createdAt,value
2022-11-05T00:02:03.116Z,9.36
2022-11-05T00:04:51.009Z,9.38
2022-11-05T00:07:44.432Z,9.39
2022-11-05T00:10:30.300Z,9.40
2022-11-05T00:13:18.933Z,9.39
2022-11-05T00:16:05.537Z,9.39
2022-11-05T00:18:33.490Z,9.38
2022-11-05T00:21:01.609Z,9.35
2022-11-05T00:23:48.629Z,9.31
2022-11-05T00:26:17.154Z,9.29
2022-11-05T00:28:45.171Z,9.27
2022-11-05T00:31:14.466Z,9.25
2022-11-05T00:33:43.173Z,9.24
2022-11-05T00:36:11.831Z,9.23
2022-11-05T00:38:39.829Z,9.21
2022-11-05T00:41:08.139Z,9.22
2022-11-05T00:43:54.832Z,9.20
2022-11-05T00:46:23.492Z,9.16
2022-11-05T00:49:10.216Z,9.15
2022-11-05T00:51:38.147Z,9.13
2022-11-05T00:54:06.248Z,9.10
2022-11-05T00:56:34.327Z,9.06
2022-11-05T00:59:02.328Z,9.05
2022-11-05T01:01:30.484Z,9.05
2022-11-05T01:03:58.814Z,9.04
2022-11-05T01:06:26.770Z,9.03
2022-11-05T01:08:56.360Z,9.03
2022-11-05T01:11:33.744Z,9.05
2022-11-05T01:14:05.263Z,9.04
2022-11-05T01:16:33.792Z,9.04
2022-11-05T01:19:02.344Z,9.05
2022-11-05T01:21:31.188Z,9.08
2022-11-05T01:23:59.388Z,9.10
2022-11-05T01:26:28.111Z,9.11
2022-11-05T01:29:00.641Z,9.12
2022-11-05T01:31:29.255Z,9.14
2022-11-05T01:33:57.575Z,9.16
2022-11-05T01:36:25.532Z,9.16
2022-11-05T01:38:54.542Z,9.18
2022-11-05T01:41:22.746Z,9.18
2022-11-05T01:44:08.805Z,9.19
2022-11-05T01:46:47.622Z,9.20
2022-11-05T01:49:31.916Z,9.21
2022-11-05T01:52:04.239Z,9.21
2022-11-05T01:54:35.068Z,9.19
2022-11-05T01:57:08.978Z,9.19
2022-11-05T01:59:46.340Z,9.18
2022-11-05T02:02:15.882Z,9.17
2022-11-05T02:04:55.113Z,9.17
2022-11-05T02:07:26.941Z,9.17
2022-11-05T02:10:14.287Z,9.16
2022-11-05T02:12:45.858Z,9.18
2022-11-05T02:15:23.894Z,9.17
2022-11-05T02:18:11.992Z,9.18
2022-11-05T02:20:52.357Z,9.19
2022-11-05T02:23:56.253Z,9.19
2022-11-05T02:26:46.371Z,9.19
2022-11-05T02:29:39.533Z,9.18
2022-11-05T02:32:17.637Z,9.18
2022-11-05T02:35:15.941Z,9.16
2022-11-05T02:37:55.875Z,9.15
2022-11-05T02:40:33.717Z,9.17
2022-11-05T02:43:08.250Z,9.16
2022-11-05T02:46:02.926Z,9.13
2022-11-05T02:48:57.022Z,9.11
2022-11-05T02:51:53.295Z,9.11
2022-11-05T02:54:28.606Z,9.11
2022-11-05T02:56:59.304Z,9.09
2022-11-05T02:59:27.290Z,9.09
2022-11-05T03:01:57.301Z,9.08
2022-11-05T03:04:26.735Z,9.08
2022-11-05T03:07:19.958Z,9.08
2022-11-05T03:10:06.025Z,9.08
2022-11-05T03:12:51.263Z,9.09
2022-11-05T03:15:37.736Z,9.10
2022-11-05T03:18:25.800Z,9.10
2022-11-05T03:21:46.599Z,9.10
2022-11-05T03:24:31.706Z,9.13
2022-11-05T03:27:08.146Z,9.13
2022-11-05T03:29:42.923Z,9.14
2022-11-05T03:32:12.618Z,9.17
2022-11-05T03:34:46.233Z,9.19
2022-11-05T03:37:15.771Z,9.21
2022-11-05T03:39:48.899Z,9.22
2022-11-05T03:42:21.165Z,9.20
2022-11-05T03:44:54.904Z,9.20
2022-11-05T03:47:29.840Z,9.22
2022-11-05T03:50:18.289Z,9.23
2022-11-05T03:52:55.170Z,9.24
2022-11-05T03:55:36.363Z,9.25
2022-11-05T03:58:05.706Z,9.25
2022-11-05T04:00:33.912Z,9.25
2022-11-05T04:03:02.701Z,9.25
2022-11-05T04:05:31.262Z,9.27
2022-11-05T04:08:18.120Z,9.28
2022-11-05T04:11:04.950Z,9.29
2022-11-05T04:13:37.521Z,9.32
2022-11-05T04:16:24.667Z,9.34
2022-11-05T04:18:52.620Z,9.36
2022-11-05T04:21:39.343Z,9.38
2022-11-05T04:24:10.969Z,9.40
2022-11-05T04:26:41.921Z,9.41
2022-11-05T04:29:29.450Z,9.41
2022-11-05T04:31:57.824Z,9.42
2022-11-05T04:34:26.811Z,9.43
2022-11-05T04:36:55.123Z,9.45
2022-11-05T04:39:24.243Z,9.45
2022-11-05T04:41:52.391Z,9.45
2022-11-05T04:44:20.562Z,9.46
2022-11-05T04:46:49.183Z,9.46
2022-11-05T04:49:20.216Z,9.46
2022-11-05T04:51:48.166Z,9.46
2022-11-05T04:54:16.083Z,9.46
2022-11-05T04:56:44.039Z,9.45
2022-11-05T04:59:12.066Z,9.44
2022-11-05T05:01:41.023Z,9.43
2022-11-05T05:04:09.210Z,9.42
2022-11-05T05:06:38.568Z,9.42
2022-11-05T05:09:06.701Z,9.43
2022-11-05T05:11:34.623Z,9.46
2022-11-05T05:14:02.614Z,9.47
2022-11-05T05:16:31.752Z,9.46
2022-11-05T05:19:00.209Z,9.46
2022-11-05T05:21:40.646Z,9.43
2022-11-05T05:24:12.097Z,9.42
2022-11-05T05:26:43.498Z,9.39
2022-11-05T05:29:11.948Z,9.40
2022-11-05T05:31:42.044Z,9.38
2022-11-05T05:34:14.943Z,9.36
2022-11-05T05:36:43.190Z,9.36
2022-11-05T05:39:11.495Z,9.36
2022-11-05T05:41:41.256Z,9.37
2022-11-05T05:44:09.317Z,9.35
2022-11-05T05:46:37.686Z,9.34
2022-11-05T05:49:12.482Z,9.32
2022-11-05T05:51:41.287Z,9.31
2022-11-05T05:54:12.351Z,9.30
2022-11-05T05:56:43.681Z,9.30
2022-11-05T05:59:15.916Z,9.30
2022-11-05T06:01:45.370Z,9.32
2022-11-05T06:04:14.591Z,9.33
2022-11-05T06:06:45.406Z,9.34
2022-11-05T06:09:17.006Z,9.34
2022-11-05T06:11:45.712Z,9.34
2022-11-05T06:14:19.324Z,9.33
2022-11-05T06:16:49.499Z,9.33
2022-11-05T06:19:18.246Z,9.34
2022-11-05T06:21:47.863Z,9.37
2022-11-05T06:24:18.737Z,9.40
2022-11-05T06:26:50.826Z,9.43
2022-11-05T06:29:19.586Z,9.47
2022-11-05T06:31:48.248Z,9.50
2022-11-05T06:34:41.334Z,9.53
2022-11-05T06:37:10.221Z,9.58
2022-11-05T06:39:38.539Z,9.62
2022-11-05T06:42:22.598Z,9.64
2022-11-05T06:44:57.251Z,9.69
2022-11-05T06:47:27.309Z,9.72
2022-11-05T06:49:57.532Z,9.77
2022-11-05T06:52:27.349Z,9.83
2022-11-05T06:54:55.376Z,9.88
2022-11-05T06:57:25.276Z,9.89
2022-11-05T06:59:59.957Z,9.89
2022-11-05T07:02:33.616Z,9.91
2022-11-05T07:05:02.358Z,9.95
2022-11-05T07:07:32.527Z,9.95
2022-11-05T07:10:02.155Z,9.95
2022-11-05T07:12:32.698Z,9.95
2022-11-05T07:15:01.142Z,9.98
2022-11-05T07:17:32.998Z,10.01
2022-11-05T07:20:01.877Z,10.04
2022-11-05T07:22:30.064Z,10.05
2022-11-05T07:24:58.867Z,10.05
2022-11-05T07:27:29.255Z,10.02
2022-11-05T07:29:59.121Z,9.99
2022-11-05T07:32:28.465Z,9.98
2022-11-05T07:35:02.294Z,9.96
2022-11-05T07:37:31.053Z,9.95
2022-11-05T07:39:59.223Z,9.98
2022-11-05T07:42:28.644Z,9.98
2022-11-05T07:44:57.345Z,9.96
2022-11-05T07:47:25.748Z,9.95
2022-11-05T07:52:39.300Z,9.96
2022-11-05T07:55:14.387Z,9.96
2022-11-05T07:57:51.137Z,9.98
2022-11-05T08:00:22.450Z,9.99
2022-11-05T08:03:07.872Z,10.00
2022-11-05T08:05:41.127Z,10.05
2022-11-05T08:08:13.040Z,10.08
2022-11-05T08:10:42.258Z,10.12
2022-11-05T08:13:11.546Z,10.18
2022-11-05T08:15:43.165Z,10.24
2022-11-05T08:18:14.739Z,10.30
2022-11-05T08:20:44.818Z,10.33
2022-11-05T08:23:14.620Z,10.39
2022-11-05T08:25:43.836Z,10.44
2022-11-05T08:28:14.875Z,10.49
2022-11-05T08:30:43.883Z,10.57
2022-11-05T08:33:13.713Z,10.63
2022-11-05T08:35:43.090Z,10.69
2022-11-05T08:38:15.981Z,10.71
2022-11-05T08:40:46.740Z,10.77
2022-11-05T08:43:15.148Z,10.83
2022-11-05T08:45:44.242Z,10.88
2022-11-05T08:48:15.223Z,10.92
2022-11-05T08:50:47.808Z,10.91
2022-11-05T08:53:18.409Z,10.89
2022-11-05T08:55:50.834Z,10.89
2022-11-05T08:58:21.002Z,10.88
2022-11-05T09:00:51.737Z,10.87
2022-11-05T09:03:20.346Z,10.86
2022-11-05T09:05:51.672Z,10.87
2022-11-05T09:08:22.232Z,10.96
2022-11-05T09:10:52.944Z,11.04
2022-11-05T09:13:23.516Z,11.06
2022-11-05T09:15:54.452Z,11.08
2022-11-05T09:18:39.213Z,11.14
2022-11-05T09:21:08.552Z,11.16
2022-11-05T09:23:43.802Z,11.24
2022-11-05T09:26:13.448Z,11.33
2022-11-05T09:28:43.920Z,11.42
2022-11-05T09:31:12.775Z,11.51
2022-11-05T09:33:42.636Z,11.59
2022-11-05T09:36:12.040Z,11.59
2022-11-05T09:38:40.548Z,11.58
2022-11-05T09:41:28.168Z,11.60
2022-11-05T09:44:19.188Z,11.62
2022-11-05T09:47:01.867Z,11.61
2022-11-05T09:49:48.230Z,11.68
2022-11-05T09:52:51.890Z,11.68
2022-11-05T09:55:46.540Z,11.62
2022-11-05T09:58:37.044Z,11.59
2022-11-05T10:01:14.841Z,11.68
2022-11-05T10:03:50.189Z,11.77
2022-11-05T10:06:26.027Z,11.88
2022-11-05T10:09:09.709Z,11.90
2022-11-05T10:12:01.745Z,11.89
2022-11-05T10:14:39.665Z,11.87
2022-11-05T10:17:13.813Z,11.87
2022-11-05T10:19:51.928Z,11.86
2022-11-05T10:22:21.306Z,11.77
2022-11-05T10:24:54.101Z,11.66
2022-11-05T10:27:33.310Z,11.60
2022-11-05T10:30:02.465Z,11.54
2022-11-05T10:32:38.065Z,11.49
2022-11-05T10:35:13.415Z,11.42
2022-11-05T10:37:43.380Z,11.42
2022-11-05T10:40:20.323Z,11.49
2022-11-05T10:43:03.465Z,11.63
2022-11-05T10:46:13.014Z,11.74
2022-11-05T10:49:00.422Z,11.87
2022-11-05T10:51:31.749Z,12.01
2022-11-05T10:54:24.605Z,12.12
2022-11-05T10:56:55.367Z,12.20
2022-11-05T10:59:30.345Z,12.20
2022-11-05T11:02:14.552Z,12.17
2022-11-05T11:04:52.838Z,12.19
2022-11-05T11:07:25.756Z,12.29
2022-11-05T11:09:54.269Z,12.34
2022-11-05T11:12:29.243Z,12.44
2022-11-05T11:15:23.766Z,12.53
2022-11-05T11:17:53.087Z,12.62
2022-11-05T11:20:35.197Z,12.72
2022-11-05T11:23:03.213Z,12.79
2022-11-05T11:25:38.926Z,12.83
2022-11-05T11:28:15.540Z,12.82
2022-11-05T11:30:50.274Z,12.73
2022-11-05T11:33:23.325Z,12.67
2022-11-05T11:35:52.926Z,12.60
2022-11-05T11:38:25.875Z,12.62
2022-11-05T11:41:05.036Z,12.77
2022-11-05T11:43:37.574Z,12.83
2022-11-05T11:46:15.253Z,12.76
2022-11-05T11:48:47.832Z,12.70
2022-11-05T11:51:33.028Z,12.74
2022-11-05T11:54:02.892Z,12.72
2022-11-05T11:56:44.428Z,12.65
2022-11-05T11:59:46.777Z,12.62
2022-11-05T12:02:35.307Z,12.69
2022-11-05T12:05:09.287Z,12.68
2022-11-05T12:07:51.600Z,12.61
2022-11-05T12:10:46.846Z,12.51
2022-11-05T12:13:25.519Z,12.45
2022-11-05T12:15:57.341Z,12.45
2022-11-05T12:19:22.660Z,12.51
2022-11-05T12:22:22.065Z,12.62
2022-11-05T12:24:57.040Z,12.77
2022-11-05T12:27:50.079Z,12.80
2022-11-05T12:30:22.020Z,12.77
2022-11-05T12:33:16.064Z,12.73
2022-11-05T12:36:07.163Z,12.73
2022-11-05T12:39:00.101Z,12.75
2022-11-05T12:41:48.941Z,12.70
2022-11-05T12:44:43.246Z,12.63
2022-11-05T12:47:33.862Z,12.59
2022-11-05T12:50:21.406Z,12.57
2022-11-05T12:52:56.121Z,12.59
2022-11-05T12:55:27.724Z,12.56
2022-11-05T12:58:23.381Z,12.50
2022-11-05T13:00:59.475Z,12.37
2022-11-05T13:03:41.501Z,12.33
2022-11-05T13:06:15.070Z,12.35
2022-11-05T13:09:02.597Z,12.38
2022-11-05T13:11:36.041Z,12.37
2022-11-05T13:14:14.553Z,12.34
2022-11-05T13:16:49.853Z,12.30
2022-11-05T13:19:22.488Z,12.20
2022-11-05T13:21:58.262Z,12.12
2022-11-05T13:24:34.689Z,12.09
2022-11-05T13:27:12.359Z,12.07
2022-11-05T13:30:05.226Z,12.07
2022-11-05T13:32:39.486Z,12.08
2022-11-05T13:35:18.486Z,12.11
2022-11-05T13:38:13.278Z,12.14
2022-11-05T13:41:03.763Z,12.12
2022-11-05T13:43:50.443Z,12.13
2022-11-05T13:46:45.308Z,12.13
2022-11-05T13:49:36.329Z,12.05
2022-11-05T13:52:12.468Z,11.97
2022-11-05T13:55:00.366Z,11.96
2022-11-05T13:57:47.440Z,11.89
2022-11-05T14:00:19.864Z,11.80
2022-11-05T14:03:08.685Z,11.75
2022-11-05T14:05:42.323Z,11.67
2022-11-05T14:08:18.516Z,11.61
2022-11-05T14:10:58.725Z,11.61
2022-11-05T14:13:42.625Z,11.60
2022-11-05T14:16:20.249Z,11.64
2022-11-05T14:19:18.490Z,11.70
2022-11-05T14:21:48.581Z,11.74
2022-11-05T14:24:22.706Z,11.72
2022-11-05T14:27:04.734Z,11.69
2022-11-05T14:29:51.380Z,11.65
2022-11-05T14:32:28.876Z,11.61
2022-11-05T14:35:17.155Z,11.56
2022-11-05T14:38:00.029Z,11.50
2022-11-05T14:40:40.876Z,11.44
2022-11-05T14:43:15.111Z,11.36
2022-11-05T14:46:12.655Z,11.26
2022-11-05T14:48:47.698Z,11.18
2022-11-05T14:51:38.607Z,11.12
2022-11-05T14:54:38.529Z,11.05
2022-11-05T14:57:07.467Z,10.97
2022-11-05T14:59:52.867Z,10.90
2022-11-05T15:02:30.119Z,10.83
2022-11-05T15:05:38.196Z,10.76
2022-11-05T15:08:30.681Z,10.66
2022-11-05T15:11:13.829Z,10.57
2022-11-05T15:13:54.104Z,10.50
2022-11-05T15:16:50.397Z,10.43
2022-11-05T15:19:46.556Z,10.36
2022-11-05T15:22:34.945Z,10.30
2022-11-05T15:25:05.965Z,10.23
2022-11-05T15:27:46.078Z,10.17
2022-11-05T15:30:18.012Z,10.12
2022-11-05T15:32:47.504Z,10.07
2022-11-05T15:35:28.118Z,10.02
2022-11-05T15:38:02.103Z,9.96
2022-11-05T15:40:33.324Z,9.90
2022-11-05T15:43:21.771Z,9.85
2022-11-05T15:45:59.219Z,9.79
2022-11-05T15:48:28.799Z,9.74
2022-11-05T15:50:57.770Z,9.70
2022-11-05T15:53:56.148Z,9.65
2022-11-05T15:56:55.953Z,9.60
2022-11-05T15:59:30.028Z,9.55
2022-11-05T16:02:13.622Z,9.51
2022-11-05T16:04:47.704Z,9.47
2022-11-05T16:07:17.092Z,9.43
2022-11-05T16:09:57.831Z,9.40
2022-11-05T16:12:33.363Z,9.37
2022-11-05T16:15:18.447Z,9.34
2022-11-05T16:17:52.421Z,9.31
2022-11-05T16:20:32.786Z,9.27
2022-11-05T16:23:02.568Z,9.24
2022-11-05T16:25:44.218Z,9.22
2022-11-05T16:28:28.056Z,9.19
2022-11-05T16:30:58.768Z,9.16
2022-11-05T16:33:33.829Z,9.13
2022-11-05T16:36:01.953Z,9.09
2022-11-05T16:38:33.426Z,9.06
2022-11-05T16:41:05.170Z,9.03
2022-11-05T16:43:34.755Z,9.00
2022-11-05T16:46:03.487Z,8.96
2022-11-05T16:48:31.447Z,8.93
2022-11-05T16:51:02.412Z,8.89
2022-11-05T16:53:30.866Z,8.84
2022-11-05T16:56:00.153Z,8.78
2022-11-05T16:58:29.204Z,8.75
2022-11-05T17:01:11.493Z,8.71
2022-11-05T17:18:19.302Z,8.88
2022-11-05T17:20:51.120Z,8.90
2022-11-05T17:23:22.890Z,8.81
2022-11-05T17:25:55.993Z,8.75
2022-11-05T17:28:27.070Z,8.69
2022-11-05T17:30:58.152Z,8.61
2022-11-05T17:33:27.086Z,8.55
2022-11-05T17:35:56.499Z,8.50
2022-11-05T17:38:27.840Z,8.45
2022-11-05T17:40:55.885Z,8.39
2022-11-05T17:43:24.750Z,8.34
2022-11-05T17:45:59.990Z,8.31
2022-11-05T17:48:33.050Z,8.28
2022-11-05T17:51:03.674Z,8.25
2022-11-05T17:53:32.412Z,8.21
2022-11-05T17:56:00.994Z,8.16
2022-11-05T17:58:30.901Z,8.12
2022-11-05T18:01:00.123Z,8.09
2022-11-05T18:03:28.344Z,8.07
2022-11-05T18:06:08.111Z,8.03
2022-11-05T18:08:36.712Z,8.00
2022-11-05T18:11:05.937Z,7.98
2022-11-05T18:13:35.588Z,7.96
2022-11-05T18:16:03.773Z,7.94
2022-11-05T18:18:31.893Z,7.92
2022-11-05T18:21:01.179Z,7.90
2022-11-05T18:23:29.480Z,7.87
2022-11-05T18:25:59.817Z,7.84
2022-11-05T18:28:31.373Z,7.82
2022-11-05T18:31:00.955Z,7.79
2022-11-05T18:33:29.127Z,7.76
2022-11-05T18:36:00.094Z,7.72
2022-11-05T18:38:29.571Z,7.69
2022-11-05T18:41:13.225Z,7.67
2022-11-05T18:43:47.795Z,7.66
2022-11-05T18:46:36.366Z,7.64
2022-11-05T18:49:07.786Z,7.61
2022-11-05T18:51:36.520Z,7.58
2022-11-05T18:54:06.064Z,7.57
2022-11-05T18:56:34.769Z,7.55
2022-11-05T18:59:34.583Z,7.52
2022-11-05T19:01:51.430Z,7.50
2022-11-05T19:04:21.122Z,7.47
2022-11-05T19:06:49.835Z,7.44
2022-11-05T19:09:17.923Z,7.41
2022-11-05T19:11:46.231Z,7.38
2022-11-05T19:14:14.290Z,7.34
2022-11-05T19:16:42.400Z,7.32
2022-11-05T19:19:11.373Z,7.28
2022-11-05T19:21:42.898Z,7.25
2022-11-05T19:24:17.586Z,7.21
2022-11-05T19:26:47.669Z,7.19
2022-11-05T19:29:18.715Z,7.15
2022-11-05T19:31:47.142Z,7.12
2022-11-05T19:34:15.672Z,7.09
2022-11-05T19:36:43.833Z,7.06
2022-11-05T19:39:14.968Z,7.03
2022-11-05T19:41:43.937Z,7.01
2022-11-05T19:44:13.425Z,6.99
2022-11-05T19:46:44.178Z,6.98
2022-11-05T19:49:13.614Z,6.97
2022-11-05T19:51:42.615Z,6.96
2022-11-05T19:54:11.947Z,6.94
2022-11-05T19:56:40.249Z,6.92
2022-11-05T19:59:12.316Z,6.90
2022-11-05T20:01:42.938Z,6.89
2022-11-05T20:04:13.216Z,6.87
2022-11-05T20:06:46.309Z,6.87
2022-11-05T20:09:21.554Z,6.86
2022-11-05T20:11:54.975Z,6.86
2022-11-05T20:14:25.095Z,6.86
2022-11-05T20:16:54.752Z,6.85
2022-11-05T20:19:26.203Z,6.86
2022-11-05T20:21:54.268Z,6.86
2022-11-05T20:24:25.281Z,6.85
2022-11-05T20:26:56.471Z,6.84
2022-11-05T20:29:30.608Z,6.83
2022-11-05T20:32:06.474Z,6.82
2022-11-05T20:34:36.299Z,6.81
2022-11-05T20:37:05.254Z,6.80
2022-11-05T20:39:36.642Z,6.78
2022-11-05T20:42:05.963Z,6.77
2022-11-05T20:44:34.103Z,6.76
2022-11-05T20:47:03.464Z,6.77
2022-11-05T20:49:32.121Z,6.77
2022-11-05T20:52:01.431Z,6.77
2022-11-05T20:54:30.999Z,6.76
2022-11-05T20:56:59.895Z,6.74
2022-11-05T20:59:28.802Z,6.74
2022-11-05T21:01:57.418Z,6.71
2022-11-05T21:04:26.167Z,6.65
2022-11-05T21:06:54.791Z,6.53
2022-11-05T21:09:25.550Z,6.41
2022-11-05T21:12:12.347Z,6.31
2022-11-05T21:14:43.035Z,6.22
2022-11-05T21:17:13.022Z,6.13
2022-11-05T21:19:41.549Z,6.06
2022-11-05T21:22:15.262Z,5.99
2022-11-05T21:24:45.272Z,5.94
2022-11-05T21:27:13.597Z,5.88
2022-11-05T21:29:41.620Z,5.82
2022-11-05T21:32:10.106Z,5.77
2022-11-05T21:34:39.129Z,5.70
2022-11-05T21:37:07.726Z,5.63
2022-11-05T21:39:36.124Z,5.58
2022-11-05T21:42:05.168Z,5.53
2022-11-05T21:44:33.764Z,5.48
2022-11-05T21:47:04.588Z,5.43
2022-11-05T21:49:34.590Z,5.39
2022-11-05T21:52:22.113Z,5.38
2022-11-05T21:55:09.063Z,5.37
2022-11-05T21:57:56.264Z,5.37
2022-11-05T22:00:24.378Z,5.36
2022-11-05T22:02:52.722Z,5.37
2022-11-05T22:05:21.389Z,5.37
2022-11-05T22:07:49.996Z,5.38
2022-11-05T22:10:18.379Z,5.38
2022-11-05T22:12:46.677Z,5.36
2022-11-05T22:15:14.845Z,5.32
2022-11-05T22:17:46.999Z,5.27
2022-11-05T22:20:16.400Z,5.22
2022-11-05T22:22:45.208Z,5.19
2022-11-05T22:25:14.465Z,5.18
2022-11-05T22:27:44.149Z,5.15
2022-11-05T22:30:13.587Z,5.11
2022-11-05T22:32:41.727Z,5.04
2022-11-05T22:35:10.117Z,4.97
2022-11-05T22:37:38.338Z,4.91
2022-11-05T22:40:07.037Z,4.86
2022-11-05T22:42:35.084Z,4.83
2022-11-05T22:45:04.011Z,4.78
2022-11-05T22:47:32.105Z,4.73
2022-11-05T22:50:06.008Z,4.66
2022-11-05T22:52:34.176Z,4.60
2022-11-05T22:55:04.768Z,4.57
2022-11-05T22:57:32.844Z,4.54
2022-11-05T23:00:01.259Z,4.52
2022-11-05T23:02:29.925Z,4.51
2022-11-05T23:04:59.102Z,4.50
2022-11-05T23:07:45.857Z,4.48
2022-11-05T23:10:32.593Z,4.49
2022-11-05T23:13:00.484Z,4.50
2022-11-05T23:15:47.115Z,4.52
2022-11-05T23:18:33.888Z,4.54
2022-11-05T23:21:23.191Z,4.57
2022-11-05T23:24:06.951Z,4.59
2022-11-05T23:26:52.929Z,4.60
2022-11-05T23:29:25.490Z,4.61
2022-11-05T23:32:12.921Z,4.62
2022-11-05T23:34:42.072Z,4.63
2022-11-05T23:37:29.461Z,4.63
2022-11-05T23:39:57.520Z,4.62
2022-11-05T23:42:44.875Z,4.61
2022-11-05T23:45:31.678Z,4.61
2022-11-05T23:48:17.336Z,4.61
2022-11-05T23:50:51.045Z,4.62
2022-11-05T23:53:19.808Z,4.61
2022-11-05T23:55:49.412Z,4.60
2022-11-05T23:58:18.610Z,4.58
